sensor_id;sensor_type;location;lat;lon;timestamp;pressure;altitude;pressure_sealevel;temperature;humidity
45357;BME280;31092;51.924;21.448;2024-01-25T00:01:15;98531.78;;;5.42;100.00
45357;BME280;31092;51.924;21.448;2024-01-25T00:03:41;98505.84;;;5.27;100.00
45357;BME280;31092;51.924;21.448;2024-01-25T00:06:06;98522.00;;;5.34;100.00
45357;BME280;31092;51.924;21.448;2024-01-25T00:08:33;98592.38;;;5.72;100.00
45357;BME280;31092;51.924;21.448;2024-01-25T00:10:59;98516.66;;;5.34;100.00
45357;BME280;31092;51.924;21.448;2024-01-25T00:13:24;98510.81;;;5.31;100.00
45357;BME280;31092;51.924;21.448;2024-01-25T00:15:50;98594.44;;;5.62;100.00
45357;BME280;31092;51.924;21.448;2024-01-25T00:18:15;98540.69;;;5.26;100.00
45357;BME280;31092;51.924;21.448;2024-01-25T00:20:41;98517.72;;;5.17;100.00
45357;BME280;31092;51.924;21.448;2024-01-25T00:23:06;98606.94;;;5.70;100.00
45357;BME280;31092;51.924;21.448;2024-01-25T00:25:32;98560.88;;;5.28;100.00
45357;BME280;31092;51.924;21.448;2024-01-25T00:27:58;98532.53;;;5.19;100.00
45357;BME280;31092;51.924;21.448;2024-01-25T00:30:23;98609.88;;;5.75;100.00
45357;BME280;31092;51.924;21.448;2024-01-25T00:32:49;98618.72;;;5.84;100.00
45357;BME280;31092;51.924;21.448;2024-01-25T00:35:15;98621.41;;;5.75;100.00
45357;BME280;31092;51.924;21.448;2024-01-25T00:37:41;98564.16;;;5.39;100.00
45357;BME280;31092;51.924;21.448;2024-01-25T00:40:07;98647.97;;;5.69;100.00
45357;BME280;31092;51.924;21.448;2024-01-25T00:42:39;98663.50;;;5.65;100.00
45357;BME280;31092;51.924;21.448;2024-01-25T00:45:06;98629.94;;;5.32;100.00
45357;BME280;31092;51.924;21.448;2024-01-25T00:47:32;98576.31;;;5.02;100.00
45357;BME280;31092;51.924;21.448;2024-01-25T00:49:58;98579.47;;;5.06;100.00
45357;BME280;31092;51.924;21.448;2024-01-25T00:52:24;98659.75;;;5.43;100.00
45357;BME280;31092;51.924;21.448;2024-01-25T00:54:50;98589.81;;;5.00;100.00
45357;BME280;31092;51.924;21.448;2024-01-25T00:57:15;98641.78;;;5.29;100.00
45357;BME280;31092;51.924;21.448;2024-01-25T00:59:41;98614.81;;;5.08;100.00
45357;BME280;31092;51.924;21.448;2024-01-25T01:02:11;98669.16;;;5.31;100.00
45357;BME280;31092;51.924;21.448;2024-01-25T01:04:37;98579.53;;;4.81;100.00
45357;BME280;31092;51.924;21.448;2024-01-25T01:07:04;98642.81;;;5.20;100.00
45357;BME280;31092;51.924;21.448;2024-01-25T01:09:29;98668.66;;;5.27;100.00
45357;BME280;31092;51.924;21.448;2024-01-25T01:11:55;98578.03;;;4.78;100.00
45357;BME280;31092;51.924;21.448;2024-01-25T01:14:20;98579.88;;;4.78;100.00
45357;BME280;31092;51.924;21.448;2024-01-25T01:16:46;98652.31;;;5.22;100.00
45357;BME280;31092;51.924;21.448;2024-01-25T01:19:11;98645.50;;;5.20;100.00
45357;BME280;31092;51.924;21.448;2024-01-25T01:21:37;98646.31;;;5.20;100.00
45357;BME280;31092;51.924;21.448;2024-01-25T01:24:04;98641.47;;;5.24;100.00
45357;BME280;31092;51.924;21.448;2024-01-25T01:26:29;98603.31;;;5.07;100.00
45357;BME280;31092;51.924;21.448;2024-01-25T01:28:55;98568.50;;;4.92;100.00
45357;BME280;31092;51.924;21.448;2024-01-25T01:31:20;98541.19;;;4.82;100.00
45357;BME280;31092;51.924;21.448;2024-01-25T01:33:46;98644.56;;;5.52;100.00
45357;BME280;31092;51.924;21.448;2024-01-25T01:36:12;98574.06;;;5.22;100.00
45357;BME280;31092;51.924;21.448;2024-01-25T01:38:37;98639.38;;;5.59;100.00
45357;BME280;31092;51.924;21.448;2024-01-25T01:41:03;98607.38;;;5.42;100.00
45357;BME280;31092;51.924;21.448;2024-01-25T01:43:28;98554.13;;;5.10;100.00
45357;BME280;31092;51.924;21.448;2024-01-25T01:46:04;98610.22;;;5.33;100.00
45357;BME280;31092;51.924;21.448;2024-01-25T01:48:32;98652.53;;;5.60;100.00
45357;BME280;31092;51.924;21.448;2024-01-25T01:50:58;98647.03;;;5.53;100.00
45357;BME280;31092;51.924;21.448;2024-01-25T01:53:23;98535.16;;;4.88;100.00
45357;BME280;31092;51.924;21.448;2024-01-25T01:55:49;98575.28;;;5.11;100.00
45357;BME280;31092;51.924;21.448;2024-01-25T01:58:15;98649.72;;;5.53;100.00
45357;BME280;31092;51.924;21.448;2024-01-25T02:00:41;98619.44;;;5.30;100.00
45357;BME280;31092;51.924;21.448;2024-01-25T02:03:07;98638.25;;;5.37;100.00
45357;BME280;31092;51.924;21.448;2024-01-25T02:05:33;98586.47;;;5.07;100.00
45357;BME280;31092;51.924;21.448;2024-01-25T02:07:58;98657.09;;;5.43;100.00
45357;BME280;31092;51.924;21.448;2024-01-25T02:10:24;98627.94;;;5.34;100.00
45357;BME280;31092;51.924;21.448;2024-01-25T02:12:49;98579.28;;;5.07;100.00
45357;BME280;31092;51.924;21.448;2024-01-25T02:15:15;98620.41;;;5.29;100.00
45357;BME280;31092;51.924;21.448;2024-01-25T02:17:40;98650.88;;;5.59;100.00
45357;BME280;31092;51.924;21.448;2024-01-25T02:20:07;98648.22;;;5.51;100.00
45357;BME280;31092;51.924;21.448;2024-01-25T02:22:32;98583.13;;;5.13;100.00
45357;BME280;31092;51.924;21.448;2024-01-25T02:24:58;98652.72;;;5.50;100.00
45357;BME280;31092;51.924;21.448;2024-01-25T02:27:23;98554.81;;;4.95;100.00
45357;BME280;31092;51.924;21.448;2024-01-25T02:29:49;98601.44;;;5.16;100.00
45357;BME280;31092;51.924;21.448;2024-01-25T02:32:14;98659.25;;;5.48;100.00
45357;BME280;31092;51.924;21.448;2024-01-25T02:34:40;98594.00;;;5.03;100.00
45357;BME280;31092;51.924;21.448;2024-01-25T02:37:05;98613.28;;;5.21;100.00
45357;BME280;31092;51.924;21.448;2024-01-25T02:39:31;98640.31;;;5.26;100.00
45357;BME280;31092;51.924;21.448;2024-01-25T02:41:56;98711.25;;;5.68;100.00
45357;BME280;31092;51.924;21.448;2024-01-25T02:44:22;98693.25;;;5.54;100.00
45357;BME280;31092;51.924;21.448;2024-01-25T02:46:47;98651.13;;;5.25;100.00
45357;BME280;31092;51.924;21.448;2024-01-25T02:49:13;98625.66;;;5.06;100.00
45357;BME280;31092;51.924;21.448;2024-01-25T02:51:38;98701.13;;;5.47;100.00
45357;BME280;31092;51.924;21.448;2024-01-25T02:54:04;98711.13;;;5.53;100.00
45357;BME280;31092;51.924;21.448;2024-01-25T02:56:29;98729.00;;;5.53;100.00
45357;BME280;31092;51.924;21.448;2024-01-25T02:59:00;98745.53;;;5.48;100.00
45357;BME280;31092;51.924;21.448;2024-01-25T03:01:26;98716.69;;;5.36;100.00
45357;BME280;31092;51.924;21.448;2024-01-25T03:03:51;98733.53;;;5.44;100.00
45357;BME280;31092;51.924;21.448;2024-01-25T03:06:17;98730.72;;;5.38;100.00
45357;BME280;31092;51.924;21.448;2024-01-25T03:08:42;98674.03;;;5.03;100.00
45357;BME280;31092;51.924;21.448;2024-01-25T03:11:08;98726.56;;;5.27;100.00
45357;BME280;31092;51.924;21.448;2024-01-25T03:13:34;98734.03;;;5.32;100.00
45357;BME280;31092;51.924;21.448;2024-01-25T03:15:59;98666.38;;;4.92;100.00
45357;BME280;31092;51.924;21.448;2024-01-25T03:18:25;98728.03;;;5.21;100.00
45357;BME280;31092;51.924;21.448;2024-01-25T03:20:50;98706.53;;;5.07;100.00
45357;BME280;31092;51.924;21.448;2024-01-25T03:23:16;98664.22;;;4.79;100.00
45357;BME280;31092;51.924;21.448;2024-01-25T03:25:42;98664.53;;;4.76;100.00
45357;BME280;31092;51.924;21.448;2024-01-25T03:28:07;98654.72;;;4.68;100.00
45357;BME280;31092;51.924;21.448;2024-01-25T03:30:34;98669.56;;;4.71;100.00
45357;BME280;31092;51.924;21.448;2024-01-25T03:33:00;98693.41;;;4.80;100.00
45357;BME280;31092;51.924;21.448;2024-01-25T03:35:26;98622.53;;;4.37;100.00
45357;BME280;31092;51.924;21.448;2024-01-25T03:37:51;98708.06;;;4.85;100.00
45357;BME280;31092;51.924;21.448;2024-01-25T03:40:17;98725.72;;;4.86;100.00
45357;BME280;31092;51.924;21.448;2024-01-25T03:42:42;98669.72;;;4.53;100.00
45357;BME280;31092;51.924;21.448;2024-01-25T03:45:08;98644.03;;;4.36;100.00
45357;BME280;31092;51.924;21.448;2024-01-25T03:47:33;98709.38;;;4.72;100.00
45357;BME280;31092;51.924;21.448;2024-01-25T03:49:59;98635.22;;;4.43;100.00
45357;BME280;31092;51.924;21.448;2024-01-25T03:52:25;98725.03;;;4.84;100.00
45357;BME280;31092;51.924;21.448;2024-01-25T03:54:51;98718.38;;;4.79;100.00
45357;BME280;31092;51.924;21.448;2024-01-25T03:57:16;98697.22;;;4.78;100.00
45357;BME280;31092;51.924;21.448;2024-01-25T03:59:42;98687.72;;;4.75;100.00
45357;BME280;31092;51.924;21.448;2024-01-25T04:02:07;98692.03;;;4.76;100.00
45357;BME280;31092;51.924;21.448;2024-01-25T04:04:33;98613.91;;;4.27;100.00
45357;BME280;31092;51.924;21.448;2024-01-25T04:06:59;98632.88;;;4.24;100.00
45357;BME280;31092;51.924;21.448;2024-01-25T04:09:24;98682.38;;;4.59;100.00
45357;BME280;31092;51.924;21.448;2024-01-25T04:11:50;98683.38;;;4.58;100.00
45357;BME280;31092;51.924;21.448;2024-01-25T04:14:15;98665.03;;;4.47;100.00
45357;BME280;31092;51.924;21.448;2024-01-25T04:16:41;98672.72;;;4.50;100.00
45357;BME280;31092;51.924;21.448;2024-01-25T04:19:06;98615.88;;;4.17;100.00
45357;BME280;31092;51.924;21.448;2024-01-25T04:21:32;98630.03;;;4.25;100.00
45357;BME280;31092;51.924;21.448;2024-01-25T04:23:58;98671.56;;;4.52;100.00
45357;BME280;31092;51.924;21.448;2024-01-25T04:26:23;98690.22;;;4.52;100.00
45357;BME280;31092;51.924;21.448;2024-01-25T04:28:49;98667.06;;;4.45;100.00
45357;BME280;31092;51.924;21.448;2024-01-25T04:31:14;98675.69;;;4.47;100.00
45357;BME280;31092;51.924;21.448;2024-01-25T04:33:40;98613.69;;;4.12;100.00
45357;BME280;31092;51.924;21.448;2024-01-25T04:36:06;98609.03;;;4.06;100.00
45357;BME280;31092;51.924;21.448;2024-01-25T04:38:31;98675.53;;;4.56;100.00
45357;BME280;31092;51.924;21.448;2024-01-25T04:40:57;98615.69;;;4.18;100.00
45357;BME280;31092;51.924;21.448;2024-01-25T04:43:22;98644.69;;;4.29;100.00
45357;BME280;31092;51.924;21.448;2024-01-25T04:45:48;98662.38;;;4.47;100.00
45357;BME280;31092;51.924;21.448;2024-01-25T04:48:13;98613.03;;;4.18;100.00
45357;BME280;31092;51.924;21.448;2024-01-25T04:50:39;98638.72;;;4.36;100.00
45357;BME280;31092;51.924;21.448;2024-01-25T04:53:04;98610.38;;;4.18;100.00
45357;BME280;31092;51.924;21.448;2024-01-25T04:55:30;98679.88;;;4.57;100.00
45357;BME280;31092;51.924;21.448;2024-01-25T04:57:56;98653.53;;;4.46;100.00
45357;BME280;31092;51.924;21.448;2024-01-25T05:00:22;98586.88;;;4.05;100.00
45357;BME280;31092;51.924;21.448;2024-01-25T05:02:48;98582.22;;;4.07;100.00
45357;BME280;31092;51.924;21.448;2024-01-25T05:05:14;98555.06;;;3.96;100.00
45357;BME280;31092;51.924;21.448;2024-01-25T05:07:39;98635.88;;;4.45;100.00
45357;BME280;31092;51.924;21.448;2024-01-25T05:10:05;98638.69;;;4.44;100.00
45357;BME280;31092;51.924;21.448;2024-01-25T05:12:31;98648.06;;;4.56;100.00
45357;BME280;31092;51.924;21.448;2024-01-25T05:14:57;98629.03;;;4.51;100.00
45357;BME280;31092;51.924;21.448;2024-01-25T05:17:23;98649.53;;;4.59;100.00
45357;BME280;31092;51.924;21.448;2024-01-25T05:19:48;98621.22;;;4.41;100.00
45357;BME280;31092;51.924;21.448;2024-01-25T05:22:14;98675.22;;;4.76;100.00
45357;BME280;31092;51.924;21.448;2024-01-25T05:24:39;98604.38;;;4.24;100.00
45357;BME280;31092;51.924;21.448;2024-01-25T05:27:05;98607.53;;;4.12;100.00
45357;BME280;31092;51.924;21.448;2024-01-25T05:29:30;98631.38;;;4.29;100.00
45357;BME280;31092;51.924;21.448;2024-01-25T05:31:56;98671.53;;;4.61;100.00
45357;BME280;31092;51.924;21.448;2024-01-25T05:34:22;98606.38;;;4.14;100.00
45357;BME280;31092;51.924;21.448;2024-01-25T05:36:48;98690.72;;;4.72;100.00
45357;BME280;31092;51.924;21.448;2024-01-25T05:39:14;98634.22;;;4.36;100.00
45357;BME280;31092;51.924;21.448;2024-01-25T05:41:40;98689.56;;;4.67;100.00
45357;BME280;31092;51.924;21.448;2024-01-25T05:44:05;98583.41;;;4.13;100.00
45357;BME280;31092;51.924;21.448;2024-01-25T05:46:31;98596.53;;;4.23;100.00
45357;BME280;31092;51.924;21.448;2024-01-25T05:48:56;98600.56;;;4.27;100.00
45357;BME280;31092;51.924;21.448;2024-01-25T05:51:22;98699.22;;;4.84;100.00
45357;BME280;31092;51.924;21.448;2024-01-25T05:53:47;98636.53;;;4.47;100.00
45357;BME280;31092;51.924;21.448;2024-01-25T05:56:13;98640.22;;;4.46;100.00
45357;BME280;31092;51.924;21.448;2024-01-25T05:58:38;98631.38;;;4.38;100.00
45357;BME280;31092;51.924;21.448;2024-01-25T06:01:04;98723.56;;;4.89;100.00
45357;BME280;31092;51.924;21.448;2024-01-25T06:03:29;98712.06;;;4.89;100.00
45357;BME280;31092;51.924;21.448;2024-01-25T06:05:55;98638.06;;;4.42;100.00
45357;BME280;31092;51.924;21.448;2024-01-25T06:08:21;98617.38;;;4.27;100.00
45357;BME280;31092;51.924;21.448;2024-01-25T06:10:47;98683.72;;;4.63;100.00
45357;BME280;31092;51.924;21.448;2024-01-25T06:13:13;98717.41;;;4.89;100.00
45357;BME280;31092;51.924;21.448;2024-01-25T06:15:38;98727.25;;;4.88;100.00
45357;BME280;31092;51.924;21.448;2024-01-25T06:18:04;98744.06;;;4.89;100.00
45357;BME280;31092;51.924;21.448;2024-01-25T06:20:30;98695.53;;;4.69;100.00
45357;BME280;31092;51.924;21.448;2024-01-25T06:22:55;98672.03;;;4.64;100.00
45357;BME280;31092;51.924;21.448;2024-01-25T06:25:20;98647.56;;;4.52;100.00
45357;BME280;31092;51.924;21.448;2024-01-25T06:27:47;98758.06;;;5.07;100.00
45357;BME280;31092;51.924;21.448;2024-01-25T06:30:14;98724.88;;;4.93;100.00
45357;BME280;31092;51.924;21.448;2024-01-25T06:32:39;98705.88;;;4.72;100.00
45357;BME280;31092;51.924;21.448;2024-01-25T06:35:05;98698.88;;;4.63;100.00
45357;BME280;31092;51.924;21.448;2024-01-25T06:37:31;98751.56;;;4.85;100.00
45357;BME280;31092;51.924;21.448;2024-01-25T06:39:56;98703.38;;;4.62;100.00
45357;BME280;31092;51.924;21.448;2024-01-25T06:42:22;98784.59;;;5.09;100.00
45357;BME280;31092;51.924;21.448;2024-01-25T06:44:47;98805.31;;;5.23;100.00
45357;BME280;31092;51.924;21.448;2024-01-25T06:47:13;98734.88;;;4.83;100.00
45357;BME280;31092;51.924;21.448;2024-01-25T06:49:38;98814.97;;;5.24;100.00
45357;BME280;31092;51.924;21.448;2024-01-25T06:52:04;98771.75;;;4.96;100.00
45357;BME280;31092;51.924;21.448;2024-01-25T06:54:30;98741.38;;;4.72;100.00
45357;BME280;31092;51.924;21.448;2024-01-25T06:56:56;98799.13;;;5.06;100.00
45357;BME280;31092;51.924;21.448;2024-01-25T06:59:22;98754.38;;;4.75;100.00
45357;BME280;31092;51.924;21.448;2024-01-25T07:01:47;98767.06;;;4.82;100.00
45357;BME280;31092;51.924;21.448;2024-01-25T07:04:13;98746.38;;;4.67;100.00
45357;BME280;31092;51.924;21.448;2024-01-25T07:06:39;98828.28;;;5.16;100.00
45357;BME280;31092;51.924;21.448;2024-01-25T07:09:05;98834.13;;;5.19;100.00
45357;BME280;31092;51.924;21.448;2024-01-25T07:11:31;98747.03;;;4.69;100.00
45357;BME280;31092;51.924;21.448;2024-01-25T07:13:56;98832.78;;;5.15;100.00
45357;BME280;31092;51.924;21.448;2024-01-25T07:16:22;98746.72;;;4.64;100.00
45357;BME280;31092;51.924;21.448;2024-01-25T07:18:49;98773.88;;;4.76;100.00
45357;BME280;31092;51.924;21.448;2024-01-25T07:21:14;98854.81;;;5.17;100.00
45357;BME280;31092;51.924;21.448;2024-01-25T07:23:40;98843.97;;;5.02;100.00
45357;BME280;31092;51.924;21.448;2024-01-25T07:26:05;98819.41;;;4.91;100.00
45357;BME280;31092;51.924;21.448;2024-01-25T07:28:31;98754.66;;;4.40;100.00
45357;BME280;31092;51.924;21.448;2024-01-25T07:30:57;98857.63;;;4.91;100.00
45357;BME280;31092;51.924;21.448;2024-01-25T07:33:22;98852.94;;;4.93;100.00
45357;BME280;31092;51.924;21.448;2024-01-25T07:35:48;98784.97;;;4.39;100.00
45357;BME280;31092;51.924;21.448;2024-01-25T07:38:14;98861.59;;;4.79;100.00
45357;BME280;31092;51.924;21.448;2024-01-25T07:40:40;98797.13;;;4.33;100.00
45357;BME280;31092;51.924;21.448;2024-01-25T07:43:06;98828.69;;;4.62;100.00
45357;BME280;31092;51.924;21.448;2024-01-25T07:45:32;98839.88;;;4.66;100.00
45357;BME280;31092;51.924;21.448;2024-01-25T07:47:58;98843.72;;;4.63;100.00
45357;BME280;31092;51.924;21.448;2024-01-25T07:50:24;98770.56;;;4.15;100.00
45357;BME280;31092;51.924;21.448;2024-01-25T07:52:49;98740.00;;;3.93;100.00
45357;BME280;31092;51.924;21.448;2024-01-25T07:55:17;98725.03;;;3.92;100.00
45357;BME280;31092;51.924;21.448;2024-01-25T07:57:43;98816.66;;;4.42;100.00
45357;BME280;31092;51.924;21.448;2024-01-25T08:00:09;98731.16;;;3.84;100.00
45357;BME280;31092;51.924;21.448;2024-01-25T08:02:38;98819.31;;;4.42;100.00
45357;BME280;31092;51.924;21.448;2024-01-25T08:05:05;98754.53;;;3.99;100.00
45357;BME280;31092;51.924;21.448;2024-01-25T08:07:31;98778.72;;;4.14;100.00
45357;BME280;31092;51.924;21.448;2024-01-25T08:09:58;98811.78;;;4.37;100.00
45357;BME280;31092;51.924;21.448;2024-01-25T08:12:26;98719.19;;;3.89;100.00
45357;BME280;31092;51.924;21.448;2024-01-25T08:14:52;98713.66;;;3.82;100.00
45357;BME280;31092;51.924;21.448;2024-01-25T08:17:17;98734.06;;;3.99;100.00
45357;BME280;31092;51.924;21.448;2024-01-25T08:19:43;98776.28;;;4.28;100.00
45357;BME280;31092;51.924;21.448;2024-01-25T08:22:08;98709.00;;;3.84;100.00
45357;BME280;31092;51.924;21.448;2024-01-25T08:24:35;98772.78;;;4.28;100.00
45357;BME280;31092;51.924;21.448;2024-01-25T08:27:00;98764.44;;;4.23;100.00
45357;BME280;31092;51.924;21.448;2024-01-25T08:29:26;98749.94;;;4.17;100.00
45357;BME280;31092;51.924;21.448;2024-01-25T08:31:51;98698.09;;;3.95;100.00
45357;BME280;31092;51.924;21.448;2024-01-25T08:34:17;98720.56;;;4.09;100.00
45357;BME280;31092;51.924;21.448;2024-01-25T08:36:42;98769.66;;;4.41;100.00
45357;BME280;31092;51.924;21.448;2024-01-25T08:39:08;98663.59;;;3.86;100.00
45357;BME280;31092;51.924;21.448;2024-01-25T08:41:34;98671.44;;;3.95;100.00
45357;BME280;31092;51.924;21.448;2024-01-25T08:44:00;98659.25;;;3.84;100.00
45357;BME280;31092;51.924;21.448;2024-01-25T08:46:26;98666.91;;;3.88;100.00
45357;BME280;31092;51.924;21.448;2024-01-25T08:48:51;98690.09;;;4.03;100.00
45357;BME280;31092;51.924;21.448;2024-01-25T08:51:17;98663.91;;;3.82;100.00
45357;BME280;31092;51.924;21.448;2024-01-25T08:53:42;98742.13;;;4.24;100.00
45357;BME280;31092;51.924;21.448;2024-01-25T08:56:08;98682.63;;;3.99;100.00
45357;BME280;31092;51.924;21.448;2024-01-25T08:58:33;98671.91;;;3.91;100.00
45357;BME280;31092;51.924;21.448;2024-01-25T09:00:59;98655.91;;;3.82;100.00
45357;BME280;31092;51.924;21.448;2024-01-25T09:03:24;98756.00;;;4.44;100.00
45357;BME280;31092;51.924;21.448;2024-01-25T09:05:51;98692.78;;;4.12;100.00
45357;BME280;31092;51.924;21.448;2024-01-25T09:08:17;98742.84;;;4.42;100.00
45357;BME280;31092;51.924;21.448;2024-01-25T09:10:43;98761.84;;;4.47;100.00
45357;BME280;31092;51.924;21.448;2024-01-25T09:13:09;98702.94;;;4.16;100.00
45357;BME280;31092;51.924;21.448;2024-01-25T09:15:35;98770.03;;;4.54;100.00
45357;BME280;31092;51.924;21.448;2024-01-25T09:18:01;98722.13;;;4.20;100.00
45357;BME280;31092;51.924;21.448;2024-01-25T09:20:27;98685.72;;;3.94;100.00
45357;BME280;31092;51.924;21.448;2024-01-25T09:22:52;98675.91;;;3.95;100.00
45357;BME280;31092;51.924;21.448;2024-01-25T09:25:21;98690.25;;;4.02;100.00
45357;BME280;31092;51.924;21.448;2024-01-25T09:27:47;98700.91;;;4.02;100.00
45357;BME280;31092;51.924;21.448;2024-01-25T09:30:13;98765.50;;;4.38;100.00
45357;BME280;31092;51.924;21.448;2024-01-25T09:32:38;98701.91;;;4.01;100.00
45357;BME280;31092;51.924;21.448;2024-01-25T09:35:04;98688.72;;;3.91;100.00
45357;BME280;31092;51.924;21.448;2024-01-25T09:37:30;98714.91;;;4.04;100.00
45357;BME280;31092;51.924;21.448;2024-01-25T09:39:55;98789.16;;;4.41;100.00
45357;BME280;31092;51.924;21.448;2024-01-25T09:42:24;98751.78;;;4.17;100.00
45357;BME280;31092;51.924;21.448;2024-01-25T09:44:50;98746.25;;;4.10;100.00
45357;BME280;31092;51.924;21.448;2024-01-25T09:47:17;98716.72;;;3.95;100.00
45357;BME280;31092;51.924;21.448;2024-01-25T09:49:44;98730.38;;;4.00;100.00
45357;BME280;31092;51.924;21.448;2024-01-25T09:52:12;98786.00;;;4.38;100.00
45357;BME280;31092;51.924;21.448;2024-01-25T09:54:38;98731.38;;;3.99;100.00
45357;BME280;31092;51.924;21.448;2024-01-25T09:57:14;98701.88;;;3.84;100.00
45357;BME280;31092;51.924;21.448;2024-01-25T09:59:42;98802.13;;;4.36;100.00
45357;BME280;31092;51.924;21.448;2024-01-25T10:02:07;98706.69;;;3.81;100.00
45357;BME280;31092;51.924;21.448;2024-01-25T10:04:34;98721.53;;;3.92;100.00
45357;BME280;31092;51.924;21.448;2024-01-25T10:06:59;98718.72;;;3.93;100.00
45357;BME280;31092;51.924;21.448;2024-01-25T10:09:25;98818.50;;;4.49;100.00
45357;BME280;31092;51.924;21.448;2024-01-25T10:11:50;98734.06;;;4.07;100.00
45357;BME280;31092;51.924;21.448;2024-01-25T10:14:16;98719.56;;;4.02;100.00
45357;BME280;31092;51.924;21.448;2024-01-25T10:16:41;98811.22;;;4.60;100.00
45357;BME280;31092;51.924;21.448;2024-01-25T10:19:07;98818.03;;;4.62;100.00
45357;BME280;31092;51.924;21.448;2024-01-25T10:21:36;98822.22;;;4.65;100.00
45357;BME280;31092;51.924;21.448;2024-01-25T10:24:01;98787.69;;;4.55;100.00
45357;BME280;31092;51.924;21.448;2024-01-25T10:26:28;98817.06;;;4.63;100.00
45357;BME280;31092;51.924;21.448;2024-01-25T10:28:54;98754.13;;;4.20;100.00
45357;BME280;31092;51.924;21.448;2024-01-25T10:31:23;98689.00;;;3.80;100.00
45357;BME280;31092;51.924;21.448;2024-01-25T10:33:52;98833.50;;;4.59;100.00
45357;BME280;31092;51.924;21.448;2024-01-25T10:36:21;98850.53;;;4.66;100.00
45357;BME280;31092;51.924;21.448;2024-01-25T10:38:48;98814.69;;;4.52;100.00
45357;BME280;31092;51.924;21.448;2024-01-25T10:41:14;98854.22;;;4.65;100.00
45357;BME280;31092;51.924;21.448;2024-01-25T10:43:42;98751.56;;;4.10;100.00
45357;BME280;31092;51.924;21.448;2024-01-25T10:46:09;98758.25;;;4.14;100.00
45357;BME280;31092;51.924;21.448;2024-01-25T10:48:35;98766.25;;;4.22;100.00
45357;BME280;31092;51.924;21.448;2024-01-25T10:51:01;98814.31;;;4.47;100.00
45357;BME280;31092;51.924;21.448;2024-01-25T10:53:32;98808.47;;;4.43;100.00
45357;BME280;31092;51.924;21.448;2024-01-25T10:55:59;98761.56;;;4.16;100.00
45357;BME280;31092;51.924;21.448;2024-01-25T10:58:30;98833.69;;;4.65;100.00
45357;BME280;31092;51.924;21.448;2024-01-25T11:00:56;98762.13;;;4.20;100.00
45357;BME280;31092;51.924;21.448;2024-01-25T11:03:29;98765.44;;;4.22;100.00
45357;BME280;31092;51.924;21.448;2024-01-25T11:06:09;98764.59;;;4.21;100.00
45357;BME280;31092;51.924;21.448;2024-01-25T11:08:35;98857.41;;;4.76;100.00
45357;BME280;31092;51.924;21.448;2024-01-25T11:11:05;98762.13;;;4.28;100.00
45357;BME280;31092;51.924;21.448;2024-01-25T11:13:32;98826.06;;;4.70;100.00
45357;BME280;31092;51.924;21.448;2024-01-25T11:15:58;98798.50;;;4.45;100.00
45357;BME280;31092;51.924;21.448;2024-01-25T11:18:26;98772.28;;;4.32;100.00
45357;BME280;31092;51.924;21.448;2024-01-25T11:20:52;98832.22;;;4.71;100.00
45357;BME280;31092;51.924;21.448;2024-01-25T11:23:17;98833.25;;;4.78;100.00
45357;BME280;31092;51.924;21.448;2024-01-25T11:25:47;98853.59;;;4.87;100.00
45357;BME280;31092;51.924;21.448;2024-01-25T11:28:14;98762.00;;;4.38;100.00
45357;BME280;31092;51.924;21.448;2024-01-25T11:30:40;98830.59;;;4.78;100.00
45357;BME280;31092;51.924;21.448;2024-01-25T11:33:09;98786.53;;;4.57;100.00
45357;BME280;31092;51.924;21.448;2024-01-25T11:35:35;98766.19;;;4.48;100.00
45357;BME280;31092;51.924;21.448;2024-01-25T11:38:00;98840.09;;;4.89;100.00
45357;BME280;31092;51.924;21.448;2024-01-25T11:40:26;98839.28;;;4.88;100.00
45357;BME280;31092;51.924;21.448;2024-01-25T11:42:53;98867.31;;;5.09;100.00
45357;BME280;31092;51.924;21.448;2024-01-25T11:45:19;98861.00;;;5.10;100.00
45357;BME280;31092;51.924;21.448;2024-01-25T11:47:44;98785.38;;;4.68;100.00
45357;BME280;31092;51.924;21.448;2024-01-25T11:50:12;98776.38;;;4.69;100.00
45357;BME280;31092;51.924;21.448;2024-01-25T11:52:38;98794.06;;;4.78;100.00
45357;BME280;31092;51.924;21.448;2024-01-25T11:55:05;98773.88;;;4.68;100.00
45357;BME280;31092;51.924;21.448;2024-01-25T11:57:34;98854.16;;;5.15;100.00
45357;BME280;31092;51.924;21.448;2024-01-25T12:00:01;98766.84;;;4.59;100.00
45357;BME280;31092;51.924;21.448;2024-01-25T12:02:27;98866.50;;;5.16;100.00
45357;BME280;31092;51.924;21.448;2024-01-25T12:04:53;98863.34;;;5.13;100.00
45357;BME280;31092;51.924;21.448;2024-01-25T12:07:21;98854.16;;;5.07;100.00
45357;BME280;31092;51.924;21.448;2024-01-25T12:10:01;98880.84;;;5.15;100.00
45357;BME280;31092;51.924;21.448;2024-01-25T12:12:27;98811.41;;;4.66;100.00
45357;BME280;31092;51.924;21.448;2024-01-25T12:15:00;98869.97;;;5.00;100.00
45357;BME280;31092;51.924;21.448;2024-01-25T12:17:29;98886.00;;;5.09;100.00
45357;BME280;31092;51.924;21.448;2024-01-25T12:19:58;98906.69;;;5.15;100.00
45357;BME280;31092;51.924;21.448;2024-01-25T12:22:27;98896.19;;;5.13;100.00
45357;BME280;31092;51.924;21.448;2024-01-25T12:24:56;98819.72;;;4.71;100.00
45357;BME280;31092;51.924;21.448;2024-01-25T12:27:23;98808.22;;;4.71;100.00
45357;BME280;31092;51.924;21.448;2024-01-25T12:29:50;98850.59;;;4.90;100.00
45357;BME280;31092;51.924;21.448;2024-01-25T12:32:16;98835.59;;;4.81;100.00
45357;BME280;31092;51.924;21.448;2024-01-25T12:34:42;98884.34;;;5.08;100.00
45357;BME280;31092;51.924;21.448;2024-01-25T12:37:09;98857.78;;;4.90;100.00
45357;BME280;31092;51.924;21.448;2024-01-25T12:39:34;98899.84;;;5.12;100.00
45357;BME280;31092;51.924;21.448;2024-01-25T12:42:00;98910.19;;;5.15;100.00
45357;BME280;31092;51.924;21.448;2024-01-25T12:44:25;98928.75;;;5.25;100.00